sensor_id;sensor_type;location;lat;lon;timestamp;temperature;humidity
33594;DHT22;19920;52.242;20.940;2024-02-23T00:01:47;9.20;99.90
33594;DHT22;19920;52.242;20.940;2024-02-23T00:04:13;9.20;99.90
33594;DHT22;19920;52.242;20.940;2024-02-23T00:06:39;9.20;99.90
33594;DHT22;19920;52.242;20.940;2024-02-23T00:09:05;9.20;99.90
33594;DHT22;19920;52.242;20.940;2024-02-23T00:11:31;9.30;99.90
33594;DHT22;19920;52.242;20.940;2024-02-23T00:13:59;9.10;99.90
33594;DHT22;19920;52.242;20.940;2024-02-23T00:16:24;9.20;99.90
33594;DHT22;19920;52.242;20.940;2024-02-23T00:18:51;9.20;99.90
33594;DHT22;19920;52.242;20.940;2024-02-23T00:21:17;9.30;99.90
33594;DHT22;19920;52.242;20.940;2024-02-23T00:23:43;9.30;99.90
33594;DHT22;19920;52.242;20.940;2024-02-23T00:26:08;9.30;99.90
33594;DHT22;19920;52.242;20.940;2024-02-23T00:28:34;9.30;99.90
33594;DHT22;19920;52.242;20.940;2024-02-23T00:30:59;9.30;99.90
33594;DHT22;19920;52.242;20.940;2024-02-23T00:33:25;9.20;99.90
33594;DHT22;19920;52.242;20.940;2024-02-23T00:35:50;9.20;99.90
33594;DHT22;19920;52.242;20.940;2024-02-23T00:38:16;9.20;99.90
33594;DHT22;19920;52.242;20.940;2024-02-23T00:40:42;9.20;99.90
33594;DHT22;19920;52.242;20.940;2024-02-23T00:43:07;9.30;99.90
33594;DHT22;19920;52.242;20.940;2024-02-23T00:45:33;9.20;99.90
33594;DHT22;19920;52.242;20.940;2024-02-23T00:47:59;9.20;99.90
33594;DHT22;19920;52.242;20.940;2024-02-23T00:50:24;9.20;99.90
33594;DHT22;19920;52.242;20.940;2024-02-23T00:52:53;9.30;99.90
33594;DHT22;19920;52.242;20.940;2024-02-23T00:55:19;9.20;99.90
33594;DHT22;19920;52.242;20.940;2024-02-23T00:57:45;9.20;99.90
33594;DHT22;19920;52.242;20.940;2024-02-23T01:00:11;9.20;99.90
33594;DHT22;19920;52.242;20.940;2024-02-23T01:02:38;9.30;99.90
33594;DHT22;19920;52.242;20.940;2024-02-23T01:05:04;9.30;99.90
33594;DHT22;19920;52.242;20.940;2024-02-23T01:07:30;9.30;99.90
33594;DHT22;19920;52.242;20.940;2024-02-23T01:09:55;9.20;99.90
33594;DHT22;19920;52.242;20.940;2024-02-23T01:12:22;9.20;99.90
33594;DHT22;19920;52.242;20.940;2024-02-23T01:14:47;9.30;99.90
33594;DHT22;19920;52.242;20.940;2024-02-23T01:17:14;9.20;99.90
33594;DHT22;19920;52.242;20.940;2024-02-23T01:19:41;9.30;99.90
33594;DHT22;19920;52.242;20.940;2024-02-23T01:22:07;9.30;99.90
33594;DHT22;19920;52.242;20.940;2024-02-23T01:24:33;9.30;99.90
33594;DHT22;19920;52.242;20.940;2024-02-23T01:26:59;9.20;99.90
33594;DHT22;19920;52.242;20.940;2024-02-23T01:29:25;9.20;99.90
33594;DHT22;19920;52.242;20.940;2024-02-23T01:31:52;9.20;99.90
33594;DHT22;19920;52.242;20.940;2024-02-23T01:34:20;9.20;99.90
33594;DHT22;19920;52.242;20.940;2024-02-23T01:36:45;9.20;99.90
33594;DHT22;19920;52.242;20.940;2024-02-23T01:39:11;9.20;99.90
33594;DHT22;19920;52.242;20.940;2024-02-23T01:41:37;9.20;99.90
33594;DHT22;19920;52.242;20.940;2024-02-23T01:44:02;9.20;99.90
33594;DHT22;19920;52.242;20.940;2024-02-23T01:46:28;9.20;99.90
33594;DHT22;19920;52.242;20.940;2024-02-23T01:48:54;9.30;99.90
33594;DHT22;19920;52.242;20.940;2024-02-23T01:51:20;9.40;99.90
33594;DHT22;19920;52.242;20.940;2024-02-23T01:53:46;9.30;99.90
33594;DHT22;19920;52.242;20.940;2024-02-23T01:56:14;9.20;99.90
33594;DHT22;19920;52.242;20.940;2024-02-23T01:58:43;9.30;99.90
33594;DHT22;19920;52.242;20.940;2024-02-23T02:01:10;9.30;99.90
33594;DHT22;19920;52.242;20.940;2024-02-23T02:03:38;9.40;99.90
33594;DHT22;19920;52.242;20.940;2024-02-23T02:06:09;9.40;99.90
33594;DHT22;19920;52.242;20.940;2024-02-23T02:08:34;9.40;99.90
33594;DHT22;19920;52.242;20.940;2024-02-23T02:11:00;9.40;99.90
33594;DHT22;19920;52.242;20.940;2024-02-23T02:13:27;9.30;99.90
33594;DHT22;19920;52.242;20.940;2024-02-23T02:15:53;9.40;99.90
33594;DHT22;19920;52.242;20.940;2024-02-23T02:18:19;9.30;99.90
33594;DHT22;19920;52.242;20.940;2024-02-23T02:20:51;9.30;99.90
33594;DHT22;19920;52.242;20.940;2024-02-23T02:23:19;9.40;99.90
33594;DHT22;19920;52.242;20.940;2024-02-23T02:25:45;9.40;99.90
33594;DHT22;19920;52.242;20.940;2024-02-23T02:28:11;9.40;99.90
33594;DHT22;19920;52.242;20.940;2024-02-23T02:30:37;9.40;99.90
33594;DHT22;19920;52.242;20.940;2024-02-23T02:33:03;9.30;99.90
33594;DHT22;19920;52.242;20.940;2024-02-23T02:35:29;9.30;99.90
33594;DHT22;19920;52.242;20.940;2024-02-23T02:37:54;9.40;99.90
33594;DHT22;19920;52.242;20.940;2024-02-23T02:40:20;9.40;99.90
33594;DHT22;19920;52.242;20.940;2024-02-23T02:42:45;9.40;99.90
33594;DHT22;19920;52.242;20.940;2024-02-23T02:45:11;9.40;99.90
33594;DHT22;19920;52.242;20.940;2024-02-23T02:47:37;9.40;99.90
33594;DHT22;19920;52.242;20.940;2024-02-23T02:50:02;9.40;99.90
33594;DHT22;19920;52.242;20.940;2024-02-23T02:52:28;9.30;99.90
33594;DHT22;19920;52.242;20.940;2024-02-23T02:54:54;9.40;99.90
33594;DHT22;19920;52.242;20.940;2024-02-23T02:57:19;9.30;99.90
33594;DHT22;19920;52.242;20.940;2024-02-23T02:59:45;9.30;99.90
33594;DHT22;19920;52.242;20.940;2024-02-23T03:02:11;9.40;99.90
33594;DHT22;19920;52.242;20.940;2024-02-23T03:04:37;9.40;99.90
33594;DHT22;19920;52.242;20.940;2024-02-23T03:07:03;9.40;99.90
33594;DHT22;19920;52.242;20.940;2024-02-23T03:09:28;9.40;99.90
33594;DHT22;19920;52.242;20.940;2024-02-23T03:11:54;9.40;99.90
33594;DHT22;19920;52.242;20.940;2024-02-23T03:14:20;9.40;99.90
33594;DHT22;19920;52.242;20.940;2024-02-23T03:16:46;9.40;99.90
33594;DHT22;19920;52.242;20.940;2024-02-23T03:19:13;9.40;99.90
33594;DHT22;19920;52.242;20.940;2024-02-23T03:21:38;9.40;99.90
33594;DHT22;19920;52.242;20.940;2024-02-23T03:24:04;9.40;99.90
33594;DHT22;19920;52.242;20.940;2024-02-23T03:26:30;9.40;99.90
33594;DHT22;19920;52.242;20.940;2024-02-23T03:28:55;9.20;99.90
33594;DHT22;19920;52.242;20.940;2024-02-23T03:31:21;9.20;99.90
33594;DHT22;19920;52.242;20.940;2024-02-23T03:33:46;9.10;99.90
33594;DHT22;19920;52.242;20.940;2024-02-23T03:36:12;9.20;99.90
33594;DHT22;19920;52.242;20.940;2024-02-23T03:38:38;9.10;99.90
33594;DHT22;19920;52.242;20.940;2024-02-23T03:41:03;9.10;99.90
33594;DHT22;19920;52.242;20.940;2024-02-23T03:43:29;9.00;99.90
33594;DHT22;19920;52.242;20.940;2024-02-23T03:45:55;9.00;99.90
33594;DHT22;19920;52.242;20.940;2024-02-23T03:48:20;8.90;99.90
33594;DHT22;19920;52.242;20.940;2024-02-23T03:50:46;8.90;99.90
33594;DHT22;19920;52.242;20.940;2024-02-23T03:53:12;8.90;99.90
33594;DHT22;19920;52.242;20.940;2024-02-23T03:55:37;8.90;99.90
33594;DHT22;19920;52.242;20.940;2024-02-23T03:58:03;8.90;99.90
33594;DHT22;19920;52.242;20.940;2024-02-23T04:00:29;8.80;99.90
33594;DHT22;19920;52.242;20.940;2024-02-23T04:02:54;8.90;99.90
33594;DHT22;19920;52.242;20.940;2024-02-23T04:05:20;8.90;99.90
33594;DHT22;19920;52.242;20.940;2024-02-23T04:07:45;8.90;99.90
33594;DHT22;19920;52.242;20.940;2024-02-23T04:10:11;8.80;99.90
33594;DHT22;19920;52.242;20.940;2024-02-23T04:12:42;8.80;99.90
33594;DHT22;19920;52.242;20.940;2024-02-23T04:15:09;8.80;99.90
33594;DHT22;19920;52.242;20.940;2024-02-23T04:17:34;8.70;99.90
33594;DHT22;19920;52.242;20.940;2024-02-23T04:20:05;8.70;99.90
33594;DHT22;19920;52.242;20.940;2024-02-23T04:22:31;8.60;99.90
33594;DHT22;19920;52.242;20.940;2024-02-23T04:24:57;8.70;99.90
33594;DHT22;19920;52.242;20.940;2024-02-23T04:27:23;8.60;99.90
33594;DHT22;19920;52.242;20.940;2024-02-23T04:29:48;8.60;99.90
33594;DHT22;19920;52.242;20.940;2024-02-23T04:32:14;8.60;99.90
33594;DHT22;19920;52.242;20.940;2024-02-23T04:34:40;8.60;99.90
33594;DHT22;19920;52.242;20.940;2024-02-23T04:37:06;8.60;99.90
33594;DHT22;19920;52.242;20.940;2024-02-23T04:39:32;8.70;99.90
33594;DHT22;19920;52.242;20.940;2024-02-23T04:41:58;8.60;99.90
33594;DHT22;19920;52.242;20.940;2024-02-23T04:44:23;8.70;99.90
33594;DHT22;19920;52.242;20.940;2024-02-23T04:46:49;8.70;99.90
33594;DHT22;19920;52.242;20.940;2024-02-23T04:49:15;8.70;99.90
33594;DHT22;19920;52.242;20.940;2024-02-23T04:51:40;8.70;99.90
33594;DHT22;19920;52.242;20.940;2024-02-23T04:54:06;8.70;99.90
33594;DHT22;19920;52.242;20.940;2024-02-23T04:56:32;8.70;99.90
33594;DHT22;19920;52.242;20.940;2024-02-23T04:58:59;8.70;99.90
33594;DHT22;19920;52.242;20.940;2024-02-23T05:01:24;8.70;99.90
33594;DHT22;19920;52.242;20.940;2024-02-23T05:03:50;8.70;99.90
33594;DHT22;19920;52.242;20.940;2024-02-23T05:06:15;8.70;99.90
33594;DHT22;19920;52.242;20.940;2024-02-23T05:08:41;8.70;99.90
33594;DHT22;19920;52.242;20.940;2024-02-23T05:11:06;8.70;99.90
33594;DHT22;19920;52.242;20.940;2024-02-23T05:13:32;8.70;99.90
33594;DHT22;19920;52.242;20.940;2024-02-23T05:15:58;8.60;99.90
33594;DHT22;19920;52.242;20.940;2024-02-23T05:18:23;8.60;99.90
33594;DHT22;19920;52.242;20.940;2024-02-23T05:20:49;8.70;99.90
33594;DHT22;19920;52.242;20.940;2024-02-23T05:23:15;8.60;99.90
33594;DHT22;19920;52.242;20.940;2024-02-23T05:25:43;8.70;99.90
33594;DHT22;19920;52.242;20.940;2024-02-23T05:28:09;8.70;99.90
33594;DHT22;19920;52.242;20.940;2024-02-23T05:30:34;8.70;99.90
33594;DHT22;19920;52.242;20.940;2024-02-23T05:33:00;8.60;99.90
33594;DHT22;19920;52.242;20.940;2024-02-23T05:35:29;8.70;99.90
33594;DHT22;19920;52.242;20.940;2024-02-23T05:37:54;8.70;99.90
33594;DHT22;19920;52.242;20.940;2024-02-23T05:40:21;8.70;99.90
33594;DHT22;19920;52.242;20.940;2024-02-23T05:42:46;8.70;99.90
33594;DHT22;19920;52.242;20.940;2024-02-23T05:45:12;8.70;99.90
33594;DHT22;19920;52.242;20.940;2024-02-23T05:47:41;8.70;99.90
33594;DHT22;19920;52.242;20.940;2024-02-23T05:50:08;8.60;99.90
33594;DHT22;19920;52.242;20.940;2024-02-23T05:52:37;8.70;99.90
33594;DHT22;19920;52.242;20.940;2024-02-23T05:55:03;8.70;99.90
33594;DHT22;19920;52.242;20.940;2024-02-23T05:57:32;8.70;99.90
33594;DHT22;19920;52.242;20.940;2024-02-23T05:59:57;8.70;99.90
33594;DHT22;19920;52.242;20.940;2024-02-23T06:02:23;8.70;99.90
33594;DHT22;19920;52.242;20.940;2024-02-23T06:04:49;8.60;99.90
33594;DHT22;19920;52.242;20.940;2024-02-23T06:07:15;8.60;99.90
33594;DHT22;19920;52.242;20.940;2024-02-23T06:09:41;8.60;99.90
33594;DHT22;19920;52.242;20.940;2024-02-23T06:12:07;8.70;99.90
33594;DHT22;19920;52.242;20.940;2024-02-23T06:14:34;8.70;99.90
33594;DHT22;19920;52.242;20.940;2024-02-23T06:17:00;8.70;99.90
33594;DHT22;19920;52.242;20.940;2024-02-23T06:19:25;8.70;99.90
33594;DHT22;19920;52.242;20.940;2024-02-23T06:21:51;8.70;99.90
33594;DHT22;19920;52.242;20.940;2024-02-23T06:24:16;8.80;99.90
33594;DHT22;19920;52.242;20.940;2024-02-23T06:26:43;8.80;99.90
33594;DHT22;19920;52.242;20.940;2024-02-23T06:29:08;8.70;99.90
33594;DHT22;19920;52.242;20.940;2024-02-23T06:31:37;8.80;99.90
33594;DHT22;19920;52.242;20.940;2024-02-23T06:34:03;8.80;99.90
33594;DHT22;19920;52.242;20.940;2024-02-23T06:36:29;8.80;99.90
33594;DHT22;19920;52.242;20.940;2024-02-23T06:38:55;8.80;99.90
33594;DHT22;19920;52.242;20.940;2024-02-23T06:41:20;8.90;99.90
33594;DHT22;19920;52.242;20.940;2024-02-23T06:43:46;8.80;99.90
33594;DHT22;19920;52.242;20.940;2024-02-23T06:46:12;8.90;99.90
33594;DHT22;19920;52.242;20.940;2024-02-23T06:48:38;8.90;99.90
33594;DHT22;19920;52.242;20.940;2024-02-23T06:51:04;8.90;99.90
33594;DHT22;19920;52.242;20.940;2024-02-23T06:53:30;8.90;99.90
33594;DHT22;19920;52.242;20.940;2024-02-23T06:55:56;8.90;99.90
33594;DHT22;19920;52.242;20.940;2024-02-23T06:58:22;8.90;99.90
33594;DHT22;19920;52.242;20.940;2024-02-23T07:00:47;9.00;99.90
33594;DHT22;19920;52.242;20.940;2024-02-23T07:03:13;9.00;99.90
33594;DHT22;19920;52.242;20.940;2024-02-23T07:05:40;9.10;99.90
33594;DHT22;19920;52.242;20.940;2024-02-23T07:08:07;9.10;99.90
33594;DHT22;19920;52.242;20.940;2024-02-23T07:10:33;9.10;99.90
33594;DHT22;19920;52.242;20.940;2024-02-23T07:12:59;9.00;99.90
33594;DHT22;19920;52.242;20.940;2024-02-23T07:15:25;9.10;99.90
33594;DHT22;19920;52.242;20.940;2024-02-23T07:17:55;9.00;99.90
33594;DHT22;19920;52.242;20.940;2024-02-23T07:20:22;9.10;99.90
33594;DHT22;19920;52.242;20.940;2024-02-23T07:22:47;9.10;99.90
33594;DHT22;19920;52.242;20.940;2024-02-23T07:25:17;9.10;99.90
33594;DHT22;19920;52.242;20.940;2024-02-23T07:27:44;9.20;99.90
33594;DHT22;19920;52.242;20.940;2024-02-23T07:30:11;9.20;99.90
33594;DHT22;19920;52.242;20.940;2024-02-23T07:32:37;9.20;99.90
33594;DHT22;19920;52.242;20.940;2024-02-23T07:35:03;9.30;99.90
33594;DHT22;19920;52.242;20.940;2024-02-23T07:37:30;9.30;99.90
33594;DHT22;19920;52.242;20.940;2024-02-23T07:39:55;9.40;99.90
33594;DHT22;19920;52.242;20.940;2024-02-23T07:42:21;9.30;99.90
33594;DHT22;19920;52.242;20.940;2024-02-23T07:44:47;9.20;99.90
33594;DHT22;19920;52.242;20.940;2024-02-23T07:47:13;9.30;99.90
33594;DHT22;19920;52.242;20.940;2024-02-23T07:49:38;9.40;99.90
33594;DHT22;19920;52.242;20.940;2024-02-23T07:52:06;9.40;99.90
33594;DHT22;19920;52.242;20.940;2024-02-23T07:54:32;9.40;99.90
33594;DHT22;19920;52.242;20.940;2024-02-23T07:56:58;9.50;99.90
33594;DHT22;19920;52.242;20.940;2024-02-23T07:59:24;9.50;99.90
33594;DHT22;19920;52.242;20.940;2024-02-23T08:01:50;9.40;99.90
33594;DHT22;19920;52.242;20.940;2024-02-23T08:04:16;9.50;99.90
33594;DHT22;19920;52.242;20.940;2024-02-23T08:06:42;9.50;99.90
33594;DHT22;19920;52.242;20.940;2024-02-23T08:09:08;9.50;99.90
33594;DHT22;19920;52.242;20.940;2024-02-23T08:11:34;9.50;99.90
33594;DHT22;19920;52.242;20.940;2024-02-23T08:14:00;9.60;99.90
33594;DHT22;19920;52.242;20.940;2024-02-23T08:16:26;9.60;99.90
33594;DHT22;19920;52.242;20.940;2024-02-23T08:18:52;9.60;99.90
33594;DHT22;19920;52.242;20.940;2024-02-23T08:21:18;9.70;99.90
33594;DHT22;19920;52.242;20.940;2024-02-23T08:23:44;9.70;99.90
33594;DHT22;19920;52.242;20.940;2024-02-23T08:26:10;9.50;99.90
33594;DHT22;19920;52.242;20.940;2024-02-23T08:28:36;9.60;99.90
33594;DHT22;19920;52.242;20.940;2024-02-23T08:31:01;9.60;99.90
33594;DHT22;19920;52.242;20.940;2024-02-23T08:33:27;9.60;99.90
33594;DHT22;19920;52.242;20.940;2024-02-23T08:35:52;9.70;99.90
33594;DHT22;19920;52.242;20.940;2024-02-23T08:38:18;9.70;99.90
33594;DHT22;19920;52.242;20.940;2024-02-23T08:40:44;9.80;99.90
33594;DHT22;19920;52.242;20.940;2024-02-23T08:43:10;9.80;99.90
33594;DHT22;19920;52.242;20.940;2024-02-23T08:45:36;9.80;99.90
33594;DHT22;19920;52.242;20.940;2024-02-23T08:48:02;9.80;99.90
33594;DHT22;19920;52.242;20.940;2024-02-23T08:50:29;9.90;99.90
33594;DHT22;19920;52.242;20.940;2024-02-23T08:52:55;9.90;99.90
33594;DHT22;19920;52.242;20.940;2024-02-23T08:55:20;9.90;99.90
33594;DHT22;19920;52.242;20.940;2024-02-23T08:57:47;10.00;99.90
33594;DHT22;19920;52.242;20.940;2024-02-23T09:00:13;10.00;99.90
33594;DHT22;19920;52.242;20.940;2024-02-23T09:02:40;10.10;99.90
33594;DHT22;19920;52.242;20.940;2024-02-23T09:05:08;10.30;99.90
33594;DHT22;19920;52.242;20.940;2024-02-23T09:07:33;10.30;99.90
33594;DHT22;19920;52.242;20.940;2024-02-23T09:09:59;10.40;99.90
33594;DHT22;19920;52.242;20.940;2024-02-23T09:12:25;10.50;99.90
33594;DHT22;19920;52.242;20.940;2024-02-23T09:14:51;10.60;99.90
33594;DHT22;19920;52.242;20.940;2024-02-23T09:17:17;10.70;99.90
33594;DHT22;19920;52.242;20.940;2024-02-23T09:19:44;10.80;99.90
33594;DHT22;19920;52.242;20.940;2024-02-23T09:22:10;10.80;99.90
33594;DHT22;19920;52.242;20.940;2024-02-23T09:24:38;10.90;99.90
33594;DHT22;19920;52.242;20.940;2024-02-23T09:27:04;11.00;99.90
33594;DHT22;19920;52.242;20.940;2024-02-23T09:29:30;10.90;99.90
33594;DHT22;19920;52.242;20.940;2024-02-23T09:31:55;11.10;99.90
33594;DHT22;19920;52.242;20.940;2024-02-23T09:34:21;11.00;99.90
33594;DHT22;19920;52.242;20.940;2024-02-23T09:36:46;11.10;99.90
33594;DHT22;19920;52.242;20.940;2024-02-23T09:39:12;11.20;99.90
33594;DHT22;19920;52.242;20.940;2024-02-23T09:41:39;11.20;99.90
33594;DHT22;19920;52.242;20.940;2024-02-23T09:44:05;11.30;99.90
33594;DHT22;19920;52.242;20.940;2024-02-23T09:46:36;11.30;99.90
33594;DHT22;19920;52.242;20.940;2024-02-23T09:49:03;11.30;99.90
33594;DHT22;19920;52.242;20.940;2024-02-23T09:51:29;11.20;99.90
33594;DHT22;19920;52.242;20.940;2024-02-23T09:53:56;11.10;99.90
33594;DHT22;19920;52.242;20.940;2024-02-23T09:56:26;11.10;99.90
33594;DHT22;19920;52.242;20.940;2024-02-23T09:58:52;11.00;99.90
33594;DHT22;19920;52.242;20.940;2024-02-23T10:01:24;11.00;99.90
33594;DHT22;19920;52.242;20.940;2024-02-23T10:03:54;11.10;99.90
33594;DHT22;19920;52.242;20.940;2024-02-23T10:06:22;10.90;99.90
33594;DHT22;19920;52.242;20.940;2024-02-23T10:08:48;10.90;99.90
33594;DHT22;19920;52.242;20.940;2024-02-23T10:11:13;11.00;99.90
33594;DHT22;19920;52.242;20.940;2024-02-23T10:13:43;10.90;99.90
33594;DHT22;19920;52.242;20.940;2024-02-23T10:16:08;11.10;99.90
33594;DHT22;19920;52.242;20.940;2024-02-23T10:18:34;11.20;99.90
33594;DHT22;19920;52.242;20.940;2024-02-23T10:21:03;11.30;99.90
33594;DHT22;19920;52.242;20.940;2024-02-23T10:23:29;11.40;99.90
33594;DHT22;19920;52.242;20.940;2024-02-23T10:25:58;11.50;99.90
33594;DHT22;19920;52.242;20.940;2024-02-23T10:28:24;11.50;99.90
33594;DHT22;19920;52.242;20.940;2024-02-23T10:30:50;11.50;99.90
33594;DHT22;19920;52.242;20.940;2024-02-23T10:33:17;11.60;99.90
33594;DHT22;19920;52.242;20.940;2024-02-23T10:35:46;11.50;99.90
33594;DHT22;19920;52.242;20.940;2024-02-23T10:38:12;11.50;99.90
33594;DHT22;19920;52.242;20.940;2024-02-23T10:40:43;11.50;99.90
33594;DHT22;19920;52.242;20.940;2024-02-23T10:43:12;11.40;99.90
33594;DHT22;19920;52.242;20.940;2024-02-23T10:45:41;11.50;99.90
33594;DHT22;19920;52.242;20.940;2024-02-23T10:48:10;11.50;99.90
33594;DHT22;19920;52.242;20.940;2024-02-23T10:50:37;11.40;99.90
33594;DHT22;19920;52.242;20.940;2024-02-23T10:53:07;11.40;99.90
33594;DHT22;19920;52.242;20.940;2024-02-23T10:55:37;11.40;99.90
33594;DHT22;19920;52.242;20.940;2024-02-23T10:58:05;11.50;99.90
33594;DHT22;19920;52.242;20.940;2024-02-23T11:00:33;11.50;99.90
33594;DHT22;19920;52.242;20.940;2024-02-23T11:02:59;11.30;99.90
33594;DHT22;19920;52.242;20.940;2024-02-23T11:05:25;11.40;99.90
33594;DHT22;19920;52.242;20.940;2024-02-23T11:07:55;11.40;99.90
33594;DHT22;19920;52.242;20.940;2024-02-23T11:10:24;11.40;99.90
33594;DHT22;19920;52.242;20.940;2024-02-23T11:13:07;11.40;99.90
33594;DHT22;19920;52.242;20.940;2024-02-23T11:15:33;11.40;99.90
33594;DHT22;19920;52.242;20.940;2024-02-23T11:18:30;11.40;99.90
33594;DHT22;19920;52.242;20.940;2024-02-23T11:20:59;11.40;99.90
33594;DHT22;19920;52.242;20.940;2024-02-23T11:23:25;11.30;99.90
33594;DHT22;19920;52.242;20.940;2024-02-23T11:28:29;11.20;99.90
33594;DHT22;19920;52.242;20.940;2024-02-23T11:30:55;11.30;99.90
33594;DHT22;19920;52.242;20.940;2024-02-23T11:33:27;11.20;99.90
33594;DHT22;19920;52.242;20.940;2024-02-23T11:35:53;11.40;99.90
33594;DHT22;19920;52.242;20.940;2024-02-23T11:38:21;11.40;99.90
33594;DHT22;19920;52.242;20.940;2024-02-23T11:40:48;11.40;99.90
33594;DHT22;19920;52.242;20.940;2024-02-23T11:43:14;11.50;99.90
33594;DHT22;19920;52.242;20.940;2024-02-23T11:45:40;11.60;99.90
33594;DHT22;19920;52.242;20.940;2024-02-23T11:48:07;11.60;99.90
33594;DHT22;19920;52.242;20.940;2024-02-23T11:50:33;11.60;99.90
33594;DHT22;19920;52.242;20.940;2024-02-23T11:52:59;11.70;99.90
33594;DHT22;19920;52.242;20.940;2024-02-23T11:55:27;11.60;99.90
33594;DHT22;19920;52.242;20.940;2024-02-23T11:57:54;11.70;99.90
33594;DHT22;19920;52.242;20.940;2024-02-23T12:00:19;11.60;99.90
33594;DHT22;19920;52.242;20.940;2024-02-23T12:02:45;11.60;99.90
33594;DHT22;19920;52.242;20.940;2024-02-23T12:05:14;11.60;99.90
33594;DHT22;19920;52.242;20.940;2024-02-23T12:07:40;11.60;99.90
33594;DHT22;19920;52.242;20.940;2024-02-23T12:10:06;11.50;99.90
33594;DHT22;19920;52.242;20.940;2024-02-23T12:12:32;11.60;99.90
33594;DHT22;19920;52.242;20.940;2024-02-23T12:14:58;11.60;99.90
33594;DHT22;19920;52.242;20.940;2024-02-23T12:17:24;11.60;99.90
33594;DHT22;19920;52.242;20.940;2024-02-23T12:19:58;11.70;99.90
33594;DHT22;19920;52.242;20.940;2024-02-23T12:22:25;11.70;99.90
33594;DHT22;19920;52.242;20.940;2024-02-23T12:24:50;11.60;99.90
33594;DHT22;19920;52.242;20.940;2024-02-23T12:27:17;11.60;99.90
33594;DHT22;19920;52.242;20.940;2024-02-23T12:29:52;11.80;99.90
33594;DHT22;19920;52.242;20.940;2024-02-23T12:32:20;11.90;99.90
33594;DHT22;19920;52.242;20.940;2024-02-23T12:34:47;12.00;99.90
33594;DHT22;19920;52.242;20.940;2024-02-23T12:37:21;12.00;99.90
33594;DHT22;19920;52.242;20.940;2024-02-23T12:39:48;11.90;99.90
33594;DHT22;19920;52.242;20.940;2024-02-23T12:42:14;11.90;99.90
33594;DHT22;19920;52.242;20.940;2024-02-23T12:44:40;11.70;99.90
33594;DHT22;19920;52.242;20.940;2024-02-23T12:47:05;11.70;99.90
33594;DHT22;19920;52.242;20.940;2024-02-23T12:49:31;11.70;99.90
33594;DHT22;19920;52.242;20.940;2024-02-23T12:51:57;11.60;99.90
33594;DHT22;19920;52.242;20.940;2024-02-23T12:54:22;11.70;99.90
33594;DHT22;19920;52.242;20.940;2024-02-23T12:56:48;11.60;99.90
33594;DHT22;19920;52.242;20.940;2024-02-23T12:59:15;11.60;99.90
33594;DHT22;19920;52.242;20.940;2024-02-23T13:01:40;11.70;99.90
33594;DHT22;19920;52.242;20.940;2024-02-23T13:04:06;11.60;99.90
33594;DHT22;19920;52.242;20.940;2024-02-23T13:06:39;11.60;99.90
33594;DHT22;19920;52.242;20.940;2024-02-23T13:09:06;11.50;99.90
33594;DHT22;19920;52.242;20.940;2024-02-23T13:11:35;11.50;99.90
33594;DHT22;19920;52.242;20.940;2024-02-23T13:14:02;11.50;99.90
33594;DHT22;19920;52.242;20.940;2024-02-23T13:16:28;11.60;99.90
33594;DHT22;19920;52.242;20.940;2024-02-23T13:18:53;11.60;99.90
33594;DHT22;19920;52.242;20.940;2024-02-23T13:21:19;11.60;99.90
33594;DHT22;19920;52.242;20.940;2024-02-23T13:23:45;11.60;99.90
33594;DHT22;19920;52.242;20.940;2024-02-23T13:26:11;11.40;99.90
33594;DHT22;19920;52.242;20.940;2024-02-23T13:28:41;11.30;99.90
33594;DHT22;19920;52.242;20.940;2024-02-23T13:31:06;11.40;99.90
33594;DHT22;19920;52.242;20.940;2024-02-23T13:33:32;11.40;99.90
33594;DHT22;19920;52.242;20.940;2024-02-23T13:35:58;11.30;99.90
33594;DHT22;19920;52.242;20.940;2024-02-23T13:38:24;11.30;99.90
33594;DHT22;19920;52.242;20.940;2024-02-23T13:40:50;11.30;99.90
33594;DHT22;19920;52.242;20.940;2024-02-23T13:43:16;11.30;99.90
33594;DHT22;19920;52.242;20.940;2024-02-23T13:45:50;11.20;99.90
33594;DHT22;19920;52.242;20.940;2024-02-23T13:48:17;11.20;99.90
33594;DHT22;19920;52.242;20.940;2024-02-23T13:50:44;11.20;99.90
33594;DHT22;19920;52.242;20.940;2024-02-23T13:53:11;11.20;99.90
33594;DHT22;19920;52.242;20.940;2024-02-23T13:55:38;11.20;99.90
33594;DHT22;19920;52.242;20.940;2024-02-23T13:58:04;11.20;99.90
33594;DHT22;19920;52.242;20.940;2024-02-23T14:00:29;11.20;99.90
33594;DHT22;19920;52.242;20.940;2024-02-23T14:02:55;11.20;99.90
33594;DHT22;19920;52.242;20.940;2024-02-23T14:05:22;11.20;99.90
33594;DHT22;19920;52.242;20.940;2024-02-23T14:07:50;11.20;99.90
33594;DHT22;19920;52.242;20.940;2024-02-23T14:10:16;11.20;99.90
33594;DHT22;19920;52.242;20.940;2024-02-23T14:12:42;11.20;99.90
33594;DHT22;19920;52.242;20.940;2024-02-23T14:15:08;11.20;99.90
33594;DHT22;19920;52.242;20.940;2024-02-23T14:17:35;11.30;99.90
33594;DHT22;19920;52.242;20.940;2024-02-23T14:20:00;11.20;99.90
33594;DHT22;19920;52.242;20.940;2024-02-23T14:22:26;11.10;99.90
33594;DHT22;19920;52.242;20.940;2024-02-23T14:24:53;11.10;99.90
33594;DHT22;19920;52.242;20.940;2024-02-23T14:27:19;11.20;99.90
33594;DHT22;19920;52.242;20.940;2024-02-23T14:29:45;11.10;99.90
33594;DHT22;19920;52.242;20.940;2024-02-23T14:32:16;11.20;99.90
33594;DHT22;19920;52.242;20.940;2024-02-23T14:34:42;11.20;99.90
33594;DHT22;19920;52.242;20.940;2024-02-23T14:37:08;11.20;99.90
33594;DHT22;19920;52.242;20.940;2024-02-23T14:39:33;11.20;99.90
33594;DHT22;19920;52.242;20.940;2024-02-23T14:42:02;11.20;99.90
33594;DHT22;19920;52.242;20.940;2024-02-23T14:44:29;11.30;99.90
33594;DHT22;19920;52.242;20.940;2024-02-23T14:46:54;11.20;99.90
33594;DHT22;19920;52.242;20.940;2024-02-23T14:49:20;11.30;99.90
33594;DHT22;19920;52.242;20.940;2024-02-23T14:51:46;11.30;99.90
33594;DHT22;19920;52.242;20.940;2024-02-23T14:54:14;11.30;99.90
33594;DHT22;19920;52.242;20.940;2024-02-23T14:56:40;11.30;99.90
33594;DHT22;19920;52.242;20.940;2024-02-23T14:59:07;11.40;99.90
33594;DHT22;19920;52.242;20.940;2024-02-23T15:01:38;11.30;99.90
33594;DHT22;19920;52.242;20.940;2024-02-23T15:04:06;11.40;99.90
33594;DHT22;19920;52.242;20.940;2024-02-23T15:06:32;11.40;99.90
33594;DHT22;19920;52.242;20.940;2024-02-23T15:08:57;11.50;99.90
33594;DHT22;19920;52.242;20.940;2024-02-23T15:11:23;11.40;99.90
33594;DHT22;19920;52.242;20.940;2024-02-23T15:13:49;11.40;99.90
33594;DHT22;19920;52.242;20.940;2024-02-23T15:16:17;11.40;99.90
33594;DHT22;19920;52.242;20.940;2024-02-23T15:18:42;11.30;99.90
33594;DHT22;19920;52.242;20.940;2024-02-23T15:21:08;11.30;99.90
33594;DHT22;19920;52.242;20.940;2024-02-23T15:23:34;11.30;99.90